Time;durP1;ratioP1;P1;durP2;ratioP2;P2;SDS_P1;SDS_P2;PMS_P1;PMS_P2;Temp;Humidity;BMP_temperature;BMP_pressure;BME280_temperature;BME280_humidity;BME280_pressure;Samples;Min_cycle;Max_cycle;Signal;HPM_P1;HPM_P2
2023/08/23 00:02:00;;;;;;;2.37;2.20;;;;;;;27.87;60.50;99529.31;5050941;28;20197;-67
2023/08/23 00:04:34;;;;;;;4.33;1.80;;;;;;;27.76;60.63;99532.19;5051175;28;20558;-67
2023/08/23 00:07:02;;;;;;;2.57;2.47;;;;;;;27.73;60.48;99529.84;5050994;28;20211;-67
2023/08/23 00:09:28;;;;;;;2.47;2.37;;;;;;;27.70;60.91;99532.78;5050601;28;20200;-68
2023/08/23 00:11:55;;;;;;;4.17;2.00;;;;;;;27.58;61.06;99526.13;5050043;28;20250;-67
2023/08/23 00:14:22;;;;;;;2.73;2.53;;;;;;;27.55;61.75;99529.88;5049277;28;20263;-67
2023/08/23 00:16:50;;;;;;;2.37;2.17;;;;;;;27.55;62.31;99534.31;5050774;28;20201;-67
2023/08/23 00:19:16;;;;;;;1.90;1.80;;;;;;;27.33;62.66;99490.81;5050409;28;20200;-67
2023/08/23 00:21:43;;;;;;;2.83;2.63;;;;;;;27.55;61.74;99531.69;5050960;28;20672;-67
2023/08/23 00:24:10;;;;;;;6.07;2.40;;;;;;;27.53;62.62;99531.81;5050465;28;20752;-67
2023/08/23 00:26:37;;;;;;;1.80;1.70;;;;;;;27.54;62.96;99537.91;5050485;28;20196;-67
2023/08/23 00:29:04;;;;;;;1.80;1.70;;;;;;;27.54;62.37;99532.66;5050174;28;20649;-67
2023/08/23 00:31:30;;;;;;;5.03;2.53;;;;;;;27.50;61.42;99536.56;5049506;28;20721;-67
2023/08/23 00:33:58;;;;;;;3.77;2.10;;;;;;;27.49;61.93;99546.28;5050321;28;20204;-67
2023/08/23 00:36:25;;;;;;;2.60;2.40;;;;;;;27.47;61.75;99544.75;5049936;28;20208;-67
2023/08/23 00:38:53;;;;;;;2.00;1.90;;;;;;;27.46;61.26;99533.44;5047877;28;20197;-67
2023/08/23 00:41:20;;;;;;;2.07;1.63;;;;;;;27.41;61.57;99532.16;5049918;28;20262;-67
2023/08/23 00:43:46;;;;;;;2.43;2.23;;;;;;;27.32;62.07;99533.06;5048145;28;20262;-67
2023/08/23 00:46:14;;;;;;;2.60;2.47;;;;;;;27.32;61.65;99536.53;5050269;28;20678;-67
2023/08/23 00:48:43;;;;;;;2.37;2.27;;;;;;;27.29;60.83;99539.47;5050498;28;20733;-67
2023/08/23 00:51:12;;;;;;;1.60;1.50;;;;;;;27.20;61.23;99544.78;5050188;28;20672;-67
2023/08/23 00:53:39;;;;;;;1.77;1.67;;;;;;;27.17;60.76;99539.81;5050106;28;20200;-67
2023/08/23 00:56:06;;;;;;;2.30;2.20;;;;;;;27.10;60.98;99540.41;5049859;28;20664;-67
2023/08/23 00:58:33;;;;;;;2.37;2.17;;;;;;;27.02;61.22;99542.94;5050301;28;20661;-67
2023/08/23 01:01:01;;;;;;;2.77;2.57;;;;;;;26.93;61.57;99538.56;5050035;28;20200;-67
2023/08/23 01:03:27;;;;;;;2.23;2.13;;;;;;;26.84;62.06;99531.56;5050065;28;20197;-68
2023/08/23 01:06:12;;;;;;;2.17;2.03;;;;;;;26.82;62.28;99541.38;5049796;28;20213;-67
2023/08/23 01:08:55;;;;;;;2.13;2.03;;;;;;;26.83;62.60;99543.03;5047650;28;20196;-67
2023/08/23 01:11:28;;;;;;;3.47;2.07;;;;;;;26.82;63.46;99538.75;5050208;28;20204;-67
2023/08/23 01:14:04;;;;;;;1.93;1.83;;;;;;;26.85;63.70;99540.28;5049464;28;20291;-67
2023/08/23 01:16:32;;;;;;;2.63;2.43;;;;;;;26.84;63.16;99542.09;5047377;28;20203;-68
2023/08/23 01:19:02;;;;;;;1.77;1.67;;;;;;;26.80;63.68;99545.09;5049601;28;20635;-67
2023/08/23 01:21:37;;;;;;;2.13;2.03;;;;;;;26.79;64.47;99549.53;5049863;28;20192;-67
2023/08/23 01:24:09;;;;;;;2.03;1.93;;;;;;;26.76;64.24;99544.56;5053169;28;20223;-67
2023/08/23 01:26:37;;;;;;;1.97;1.87;;;;;;;26.73;63.99;99547.50;5051691;28;20228;-67
2023/08/23 01:29:04;;;;;;;2.73;2.57;;;;;;;26.71;63.63;99543.34;5053582;28;20299;-67
2023/08/23 01:31:33;;;;;;;1.83;1.77;;;;;;;26.71;63.62;99544.19;5050535;28;20280;-67
2023/08/23 01:34:09;;;;;;;2.27;2.17;;;;;;;26.69;64.08;99540.84;5052909;28;20234;-67
2023/08/23 01:36:41;;;;;;;2.27;2.17;;;;;;;26.67;64.48;99537.56;5048702;28;20196;-67
2023/08/23 01:39:11;;;;;;;3.40;1.97;;;;;;;26.66;64.80;99538.50;5053271;28;20363;-67
2023/08/23 01:41:39;;;;;;;7.17;2.03;;;;;;;26.65;64.55;99534.25;5054036;28;20291;-67
2023/08/23 01:44:06;;;;;;;2.30;2.10;;;;;;;26.63;64.83;99544.06;5052976;28;20196;-67
2023/08/23 01:46:35;;;;;;;2.17;1.77;;;;;;;26.62;64.95;99540.59;5054177;28;20196;-67
2023/08/23 01:49:01;;;;;;;3.37;3.07;;;;;;;26.55;65.01;99543.97;5053734;28;20696;-67
2023/08/23 01:51:28;;;;;;;3.00;2.10;;;;;;;26.52;64.72;99554.78;5053752;28;20196;-67
2023/08/23 01:53:55;;;;;;;2.80;2.60;;;;;;;26.48;65.16;99540.25;5053199;28;20262;-67
2023/08/23 01:56:23;;;;;;;2.30;2.10;;;;;;;26.48;66.00;99540.25;5053354;28;20209;-67
2023/08/23 01:58:50;;;;;;;1.83;1.73;;;;;;;26.47;64.97;99538.59;5053275;28;20201;-67
2023/08/23 02:01:16;;;;;;;2.43;1.77;;;;;;;26.46;65.96;99544.84;5053174;28;20596;-67
2023/08/23 02:03:43;;;;;;;1.93;1.80;;;;;;;26.43;65.84;99551.19;5053394;28;20204;-67
2023/08/23 02:06:10;;;;;;;2.10;1.90;;;;;;;26.38;65.56;99552.59;5052779;28;20216;-67
2023/08/23 02:08:37;;;;;;;2.67;2.47;;;;;;;26.36;66.56;99554.56;5053425;28;20200;-67
2023/08/23 02:11:03;;;;;;;2.50;2.40;;;;;;;26.32;66.53;99543.50;5052667;28;20270;-67
2023/08/23 02:13:31;;;;;;;2.17;2.07;;;;;;;26.28;66.62;99546.53;5052684;28;20247;-67
2023/08/23 02:15:58;;;;;;;2.43;2.33;;;;;;;26.22;67.51;99542.69;5053485;28;20247;-67
2023/08/23 02:18:25;;;;;;;2.13;1.97;;;;;;;26.14;67.44;99549.59;5052774;28;20672;-67
2023/08/23 02:20:58;;;;;;;2.33;2.23;;;;;;;25.99;68.58;99526.38;5053427;28;20208;-67
2023/08/23 02:23:25;;;;;;;2.60;2.40;;;;;;;25.97;69.25;99538.84;5052433;28;20770;-67
2023/08/23 02:25:52;;;;;;;2.30;2.20;;;;;;;25.97;69.49;99544.09;5052802;28;20227;-67
2023/08/23 02:28:18;;;;;;;2.43;2.23;;;;;;;25.97;70.08;99544.09;5052308;28;20574;-67
2023/08/23 02:30:47;;;;;;;2.73;2.53;;;;;;;25.95;69.99;99540.75;5053210;28;20197;-67
2023/08/23 02:33:13;;;;;;;2.90;2.73;;;;;;;25.94;70.68;99538.28;5052604;28;20220;-67
2023/08/23 02:35:41;;;;;;;1.67;1.57;;;;;;;25.78;71.40;99528.34;5052594;28;20598;-67
2023/08/23 02:38:09;;;;;;;2.37;2.20;;;;;;;25.87;71.81;99540.63;5052647;28;20327;-67
2023/08/23 02:40:36;;;;;;;2.20;2.10;;;;;;;25.86;72.09;99546.84;5052485;28;20255;-67
2023/08/23 02:43:01;;;;;;;3.43;1.90;;;;;;;25.86;72.33;99536.34;5052440;28;20197;-67
2023/08/23 02:45:28;;;;;;;2.07;1.97;;;;;;;25.87;72.78;99548.53;5052353;28;20216;-67
2023/08/23 02:47:56;;;;;;;2.40;2.30;;;;;;;25.84;72.53;99538.28;5052558;28;20246;-67
2023/08/23 02:50:23;;;;;;;2.70;2.40;;;;;;;25.77;72.97;99526.69;5052247;28;20200;-66
2023/08/23 02:52:49;;;;;;;6.37;2.80;;;;;;;25.82;73.29;99540.22;5052319;28;20201;-67
2023/08/23 02:55:16;;;;;;;2.97;2.33;;;;;;;25.74;73.37;99542.72;5052277;28;20247;-68
2023/08/23 02:57:43;;;;;;;2.40;2.30;;;;;;;25.70;73.20;99551.84;5052056;28;20196;-67
2023/08/23 03:00:11;;;;;;;2.43;2.33;;;;;;;25.67;73.39;99541.59;5052296;28;20203;-67
2023/08/23 03:02:38;;;;;;;3.30;3.00;;;;;;;25.64;73.04;99547.13;5052192;28;20216;-67
2023/08/23 03:05:07;;;;;;;1.90;1.80;;;;;;;25.63;73.54;99540.22;5051872;28;20278;-67
2023/08/23 03:07:34;;;;;;;4.07;2.07;;;;;;;25.51;73.07;99523.78;5050943;28;20246;-67
2023/08/23 03:10:00;;;;;;;1.93;1.83;;;;;;;25.58;73.20;99542.44;5052237;28;20201;-67
2023/08/23 03:12:27;;;;;;;2.63;2.43;;;;;;;25.51;73.13;99543.94;5051575;28;20637;-67
2023/08/23 03:14:54;;;;;;;2.57;2.37;;;;;;;25.48;73.58;99536.31;5051664;28;20247;-67
2023/08/23 03:17:21;;;;;;;6.20;1.77;;;;;;;25.43;73.51;99534.09;5050627;28;20262;-67
2023/08/23 03:19:47;;;;;;;5.13;1.90;;;;;;;25.42;73.97;99536.88;5051521;28;20204;-67
2023/08/23 03:22:15;;;;;;;1.90;1.80;;;;;;;25.40;74.01;99538.78;5051407;28;20721;-67
2023/08/23 03:24:42;;;;;;;2.40;2.27;;;;;;;25.39;73.94;99537.16;5051493;28;20276;-67
2023/08/23 03:27:09;;;;;;;2.53;2.43;;;;;;;25.36;73.97;99538.25;5051805;28;20197;-67
2023/08/23 03:29:35;;;;;;;2.13;2.03;;;;;;;25.35;74.20;99541.00;5051528;28;20266;-66
2023/08/23 03:32:02;;;;;;;2.37;1.83;;;;;;;25.29;74.87;99541.53;5051437;28;20257;-67
2023/08/23 03:34:29;;;;;;;10.03;2.73;;;;;;;25.27;74.73;99543.47;5050949;28;20201;-67
2023/08/23 03:36:56;;;;;;;2.33;2.03;;;;;;;25.25;74.83;99540.16;5051710;28;20193;-67
2023/08/23 03:39:24;;;;;;;2.23;2.03;;;;;;;25.24;75.03;99535.84;5051306;28;20205;-67
2023/08/23 03:41:50;;;;;;;2.03;1.93;;;;;;;25.25;75.28;99534.91;5051342;28;20274;-67
2023/08/23 03:44:17;;;;;;;1.77;1.67;;;;;;;25.24;75.73;99535.84;5051205;28;20193;-67
2023/08/23 03:46:44;;;;;;;2.47;2.37;;;;;;;25.24;76.40;99538.47;5051227;28;20666;-67
2023/08/23 03:49:10;;;;;;;1.97;1.87;;;;;;;25.21;76.56;99536.13;5050821;28;20197;-67
2023/08/23 03:51:37;;;;;;;2.47;2.27;;;;;;;25.21;76.46;99542.22;5051162;28;20201;-67
2023/08/23 03:54:04;;;;;;;3.93;2.87;;;;;;;25.22;76.75;99532.56;5050499;28;20250;-67
2023/08/23 03:56:32;;;;;;;3.07;2.77;;;;;;;25.21;76.54;99544.00;5050837;28;20192;-67
2023/08/23 03:58:59;;;;;;;5.83;3.07;;;;;;;25.18;77.19;99541.66;5050120;28;20209;-67
2023/08/23 04:01:25;;;;;;;1.77;1.67;;;;;;;25.11;79.02;99537.91;5050543;28;20247;-67
2023/08/23 04:03:52;;;;;;;3.10;2.90;;;;;;;25.02;79.63;99534.31;5050468;28;20205;-66
2023/08/23 04:06:19;;;;;;;2.63;2.43;;;;;;;24.94;80.37;99536.78;5050648;28;20213;-67
2023/08/23 04:08:45;;;;;;;2.30;2.20;;;;;;;24.83;81.31;99529.84;5051201;28;20196;-67
2023/08/23 04:11:12;;;;;;;5.33;2.40;;;;;;;24.75;82.23;99521.75;5050531;28;20208;-67
2023/08/23 04:13:40;;;;;;;2.30;2.20;;;;;;;24.63;82.21;99516.75;5050998;28;20193;-67
2023/08/23 04:16:07;;;;;;;2.87;2.57;;;;;;;24.65;82.93;99531.41;5050383;28;20207;-67
2023/08/23 04:18:34;;;;;;;1.50;1.40;;;;;;;24.63;82.61;99529.84;5050407;28;20262;-67
2023/08/23 04:21:01;;;;;;;3.47;2.57;;;;;;;24.59;83.13;99531.91;5048947;28;20750;-67
2023/08/23 04:23:28;;;;;;;2.53;2.30;;;;;;;24.59;83.30;99531.91;5049958;28;20220;-67
2023/08/23 04:25:55;;;;;;;12.50;3.40;;;;;;;24.58;83.67;99540.75;5050555;28;20266;-68
2023/08/23 04:28:22;;;;;;;2.50;2.40;;;;;;;24.55;83.63;99538.41;5050394;28;20208;-67
2023/08/23 04:30:50;;;;;;;2.60;2.40;;;;;;;24.53;84.18;99543.75;5050360;28;20636;-67
2023/08/23 04:33:17;;;;;;;2.30;2.20;;;;;;;24.51;84.61;99544.84;5049505;28;20201;-67
2023/08/23 04:35:44;;;;;;;2.40;2.30;;;;;;;24.47;84.37;99548.69;5050313;28;20684;-67
2023/08/23 04:38:13;;;;;;;3.47;3.17;;;;;;;24.46;85.28;99541.78;5050379;28;20197;-68
2023/08/23 04:40:40;;;;;;;2.13;2.03;;;;;;;24.52;84.97;99551.75;5050280;28;20692;-67
2023/08/23 04:43:07;;;;;;;2.93;2.57;;;;;;;24.66;85.80;99550.56;5049664;28;20205;-68
2023/08/23 04:45:37;;;;;;;2.30;1.77;;;;;;;24.84;84.32;99546.41;5049686;28;20244;-67
2023/08/23 04:48:06;;;;;;;2.50;2.40;;;;;;;25.05;84.00;99555.84;5050225;28;20193;-67
2023/08/23 04:50:34;;;;;;;2.73;2.53;;;;;;;25.26;81.95;99552.31;5048337;28;20254;-68
2023/08/23 04:53:01;;;;;;;2.40;2.30;;;;;;;25.42;80.79;99547.38;5048935;28;20208;-67
2023/08/23 04:55:27;;;;;;;6.53;2.73;;;;;;;25.61;80.47;99546.56;5043290;28;20197;-67
2023/08/23 04:57:54;;;;;;;2.60;2.47;;;;;;;25.79;79.09;99548.38;5046297;28;20201;-67
2023/08/23 05:00:21;;;;;;;2.90;2.60;;;;;;;25.93;79.71;99555.84;5046359;28;20209;-67
2023/08/23 05:02:48;;;;;;;3.53;3.23;;;;;;;26.09;77.30;99548.22;5047493;28;20210;-67
2023/08/23 05:05:16;;;;;;;5.53;2.80;;;;;;;26.16;78.08;99538.00;5047839;28;20230;-67
2023/08/23 05:07:43;;;;;;;3.17;2.70;;;;;;;26.31;75.95;99552.34;5048529;28;20208;-67
2023/08/23 05:10:10;;;;;;;3.63;3.40;;;;;;;26.47;75.63;99552.56;5047334;28;20262;-68
2023/08/23 05:12:36;;;;;;;7.37;3.40;;;;;;;26.67;77.53;99558.59;5046654;28;20207;-66
2023/08/23 05:15:04;;;;;;;3.20;2.90;;;;;;;26.88;76.98;99556.56;5043614;28;20212;-68
2023/08/23 05:17:30;;;;;;;3.20;3.07;;;;;;;27.12;74.39;99548.97;5046432;28;20262;-68
2023/08/23 05:19:57;;;;;;;8.70;3.10;;;;;;;27.39;74.26;99544.66;5048388;28;20653;-67
2023/08/23 05:22:25;;;;;;;3.33;2.60;;;;;;;27.61;70.24;99547.72;5048633;28;20655;-64
2023/08/23 05:24:52;;;;;;;8.97;3.03;;;;;;;27.78;71.72;99546.06;5047509;28;20584;-68
2023/08/23 05:27:19;;;;;;;3.30;3.00;;;;;;;27.93;71.65;99544.53;5049739;28;20228;-64
2023/08/23 05:29:46;;;;;;;3.03;2.80;;;;;;;28.13;69.46;99546.03;5050106;28;20204;-67
2023/08/23 05:32:12;;;;;;;4.13;3.90;;;;;;;28.34;68.86;99552.72;5049314;28;20699;-65
2023/08/23 05:34:41;;;;;;;4.43;2.90;;;;;;;28.45;67.08;99528.75;5047009;28;20196;-65
2023/08/23 05:37:07;;;;;;;2.97;2.63;;;;;;;28.74;66.24;99542.44;5049104;28;20204;-66
2023/08/23 05:39:35;;;;;;;2.67;2.50;;;;;;;28.86;65.32;99537.69;5048531;28;20635;-68
2023/08/23 05:42:02;;;;;;;3.77;2.87;;;;;;;28.96;63.34;99541.88;5048664;28;20200;-68
2023/08/23 05:44:29;;;;;;;3.30;3.00;;;;;;;29.09;64.98;99544.88;5047537;28;20204;-67
2023/08/23 05:46:55;;;;;;;3.40;2.17;;;;;;;29.27;64.80;99542.16;5049264;28;20278;-68
2023/08/23 05:49:22;;;;;;;2.73;2.53;;;;;;;29.48;63.49;99539.06;5046348;28;20262;-67
2023/08/23 05:51:50;;;;;;;3.22;3.03;;;;;;;29.63;65.38;99538.25;5049961;28;20265;-71
2023/08/23 05:54:17;;;;;;;2.78;2.15;;;;;;;29.70;62.42;99539.25;5048910;28;20292;-71
2023/08/23 05:56:45;;;;;;;3.10;2.90;;;;;;;29.90;63.20;99541.59;5048274;28;20266;-71
2023/08/23 05:59:12;;;;;;;2.70;2.60;;;;;;;29.93;60.07;99539.44;5047320;28;20208;-71
2023/08/23 06:01:39;;;;;;;2.08;1.98;;;;;;;29.98;59.52;99534.50;5047648;28;20258;-71
2023/08/23 06:04:06;;;;;;;2.75;2.22;;;;;;;30.01;61.39;99531.50;5048602;28;20870;-71
2023/08/23 06:06:33;;;;;;;2.78;2.58;;;;;;;30.24;59.85;99536.09;5047461;28;20213;-68
2023/08/23 06:09:00;;;;;;;2.80;2.60;;;;;;;30.38;62.14;99530.09;5045711;28;20661;-68
2023/08/23 06:11:27;;;;;;;2.53;2.33;;;;;;;30.56;61.78;99536.06;5051983;28;20645;-66
2023/08/23 06:13:56;;;;;;;9.75;2.47;;;;;;;30.74;60.60;99544.56;5050804;28;20212;-67
2023/08/23 06:16:23;;;;;;;8.25;2.53;;;;;;;30.84;58.15;99541.72;5050648;28;20201;-67
2023/08/23 06:18:50;;;;;;;2.42;2.08;;;;;;;31.01;57.51;99536.22;5051880;28;20254;-67
2023/08/23 06:21:16;;;;;;;2.38;2.28;;;;;;;31.10;59.36;99540.47;5052403;28;20239;-68
2023/08/23 06:23:44;;;;;;;4.68;2.40;;;;;;;31.32;56.17;99545.97;5051203;28;20298;-66
2023/08/23 06:26:10;;;;;;;2.33;2.22;;;;;;;31.48;54.57;99544.03;5051234;28;20248;-69
2023/08/23 06:28:37;;;;;;;2.30;2.15;;;;;;;31.51;54.08;99545.53;5052468;28;20196;-68
2023/08/23 06:31:05;;;;;;;3.13;2.92;;;;;;;31.72;57.00;99540.44;5051766;28;20652;-68
2023/08/23 06:33:32;;;;;;;2.58;2.45;;;;;;;31.78;54.52;99530.94;5050917;28;20266;-68
2023/08/23 06:35:59;;;;;;;2.10;1.98;;;;;;;32.10;51.59;99554.53;5052139;28;20573;-67
2023/08/23 06:38:26;;;;;;;1.90;1.80;;;;;;;32.38;52.47;99554.75;5051692;28;20208;-67
2023/08/23 06:40:52;;;;;;;2.50;2.30;;;;;;;32.66;51.39;99561.97;5052129;28;20200;-67
2023/08/23 06:43:19;;;;;;;2.15;2.05;;;;;;;32.82;49.40;99555.63;5051689;28;20286;-66
2023/08/23 06:45:46;;;;;;;2.53;2.33;;;;;;;33.06;49.48;99552.66;5052031;28;20225;-67
2023/08/23 06:48:14;;;;;;;2.63;2.42;;;;;;;33.23;46.56;99555.94;5051592;28;20203;-66
2023/08/23 06:50:41;;;;;;;3.40;3.17;;;;;;;33.38;47.74;99555.91;5051827;28;20288;-67
2023/08/23 06:53:08;;;;;;;4.88;2.97;;;;;;;33.55;46.94;99565.25;5049411;28;20209;-66
2023/08/23 06:55:39;;;;;;;4.07;2.15;;;;;;;33.84;47.49;99557.19;5049805;28;20205;-66
2023/08/23 06:58:07;;;;;;;2.58;2.38;;;;;;;34.03;46.89;99561.03;5049759;28;20204;-67
2023/08/23 07:00:34;;;;;;;2.38;2.28;;;;;;;34.17;48.03;99573.44;5050009;28;20300;-66
2023/08/23 07:03:01;;;;;;;2.72;2.53;;;;;;;34.37;44.81;99573.59;5050501;28;20200;-67
2023/08/23 07:05:29;;;;;;;2.53;2.42;;;;;;;34.58;42.75;99570.84;5044804;28;20209;-66
2023/08/23 07:07:55;;;;;;;2.97;2.78;;;;;;;34.76;43.32;99568.53;5045613;28;20262;-67
2023/08/23 07:10:22;;;;;;;3.58;2.38;;;;;;;34.77;42.69;99570.16;5048449;28;20294;-67
2023/08/23 07:12:49;;;;;;;2.50;2.40;;;;;;;34.87;45.74;99546.66;5046787;28;20209;-67
2023/08/23 07:15:15;;;;;;;2.75;2.55;;;;;;;35.02;43.82;99568.66;5049368;28;20235;-67
2023/08/23 07:17:42;;;;;;;4.32;2.30;;;;;;;35.11;43.29;99556.84;5039385;28;20201;-67
2023/08/23 07:20:12;;;;;;;2.58;2.38;;;;;;;35.30;43.01;99553.41;5043193;28;20212;-67
2023/08/23 07:22:40;;;;;;;2.20;2.10;;;;;;;35.37;44.32;99553.41;5050943;28;20232;-67
2023/08/23 07:25:08;;;;;;;2.42;2.33;;;;;;;35.50;42.75;99547.28;5051317;28;20200;-67
2023/08/23 07:27:36;;;;;;;2.40;2.30;;;;;;;35.68;41.77;99547.53;5048213;28;20259;-67
2023/08/23 07:30:04;;;;;;;3.38;2.45;;;;;;;35.83;40.96;99544.69;5051504;28;20284;-67
2023/08/23 07:32:32;;;;;;;2.35;2.25;;;;;;;35.78;39.86;99554.13;5047364;28;20197;-68
2023/08/23 07:35:00;;;;;;;4.20;3.22;;;;;;;35.88;40.60;99547.53;5048916;28;20696;-67
2023/08/23 07:37:28;;;;;;;2.97;2.45;;;;;;;35.97;40.86;99552.47;5051059;28;20204;-68
2023/08/23 07:39:56;;;;;;;2.67;2.58;;;;;;;36.19;41.49;99561.94;5049394;28;20282;-67
2023/08/23 07:42:24;;;;;;;4.50;2.88;;;;;;;36.39;41.67;99550.38;5050839;28;20224;-67
2023/08/23 07:44:51;;;;;;;2.38;2.28;;;;;;;36.53;41.21;99552.88;5046724;28;20235;-68
2023/08/23 07:47:18;;;;;;;3.17;2.97;;;;;;;36.59;39.59;99551.19;5049309;28;20716;-69
2023/08/23 07:49:45;;;;;;;3.35;3.15;;;;;;;36.78;39.80;99552.97;5051034;28;20632;-67
2023/08/23 07:52:11;;;;;;;4.72;2.83;;;;;;;36.89;38.71;99549.66;5050824;28;20204;-68
2023/08/23 07:54:38;;;;;;;2.85;2.65;;;;;;;37.02;37.65;99546.97;5051318;28;20204;-67
2023/08/23 07:57:06;;;;;;;3.80;2.67;;;;;;;37.03;38.35;99548.59;5050516;28;20246;-67
2023/08/23 07:59:33;;;;;;;4.25;2.72;;;;;;;37.12;38.02;99546.50;5051155;28;20208;-67
2023/08/23 08:02:00;;;;;;;2.80;2.67;;;;;;;37.17;36.43;99544.81;5050743;28;20653;-67
2023/08/23 08:04:27;;;;;;;2.05;1.95;;;;;;;37.22;37.00;99542.31;5051125;28;20197;-67
2023/08/23 08:06:54;;;;;;;2.13;2.03;;;;;;;37.20;37.46;99531.03;5049411;28;20220;-67
2023/08/23 08:09:21;;;;;;;2.22;2.13;;;;;;;37.35;36.81;99538.78;5050503;28;20213;-67
2023/08/23 08:11:48;;;;;;;2.50;2.40;;;;;;;36.83;36.80;99537.16;5050839;28;20687;-67
2023/08/23 08:14:16;;;;;;;2.22;2.13;;;;;;;37.03;36.84;99543.25;5049933;28;22027;-67
2023/08/23 08:16:42;;;;;;;2.80;2.60;;;;;;;37.09;36.49;99536.25;5047714;28;20276;-67
2023/08/23 08:19:09;;;;;;;3.00;2.80;;;;;;;37.15;37.04;99530.03;5048791;28;20288;-67
2023/08/23 08:21:36;;;;;;;2.67;2.47;;;;;;;37.30;38.21;99526.03;5049762;28;20200;-68
2023/08/23 08:24:03;;;;;;;2.20;2.10;;;;;;;37.45;37.02;99522.25;5048596;28;20229;-68
2023/08/23 08:26:30;;;;;;;2.00;1.90;;;;;;;37.58;36.38;99531.00;5048790;28;20220;-68
2023/08/23 08:28:57;;;;;;;3.28;2.00;;;;;;;37.65;36.32;99530.94;5049344;28;20200;-69
2023/08/23 08:31:25;;;;;;;4.32;1.85;;;;;;;37.68;34.84;99530.50;5048989;28;20208;-68
2023/08/23 08:33:51;;;;;;;1.98;1.88;;;;;;;37.59;34.34;99531.81;5049494;28;20685;-68
2023/08/23 08:36:18;;;;;;;2.50;2.35;;;;;;;37.52;37.36;99525.69;5048152;28;20254;-68
2023/08/23 08:38:45;;;;;;;2.10;2.00;;;;;;;37.58;36.45;99524.84;5049932;28;20205;-68
2023/08/23 08:41:13;;;;;;;1.98;1.88;;;;;;;37.59;35.44;99515.78;5047330;28;20754;-67
2023/08/23 08:43:40;;;;;;;2.25;2.15;;;;;;;37.80;36.28;99518.09;5048046;28;20216;-67
2023/08/23 08:46:07;;;;;;;2.83;2.08;;;;;;;37.98;34.76;99520.84;5048438;28;20251;-68
2023/08/23 08:48:35;;;;;;;2.20;2.10;;;;;;;37.74;35.32;99508.25;5046381;28;20263;-67
2023/08/23 08:51:03;;;;;;;2.22;2.00;;;;;;;37.49;37.19;99510.09;5047233;28;20262;-68
2023/08/23 08:53:32;;;;;;;2.70;2.60;;;;;;;37.00;35.80;99494.75;5049090;28;20219;-68
2023/08/23 08:56:00;;;;;;;2.88;2.38;;;;;;;37.26;37.27;99508.78;5049142;28;20283;-68
2023/08/23 08:58:29;;;;;;;2.30;2.20;;;;;;;37.38;35.06;99514.25;5047948;28;20197;-67
2023/08/23 09:00:59;;;;;;;1.67;1.63;;;;;;;37.58;34.01;99503.44;5049404;28;20212;-68
2023/08/23 09:03:27;;;;;;;1.98;1.88;;;;;;;37.58;33.61;99498.91;5047784;28;20204;-69
2023/08/23 09:05:56;;;;;;;1.98;1.88;;;;;;;37.55;33.82;99503.84;5049383;28;20278;-70
2023/08/23 09:08:23;;;;;;;1.90;1.77;;;;;;;37.52;34.41;99493.59;5049896;28;20279;-69
2023/08/23 09:10:50;;;;;;;1.88;1.77;;;;;;;37.59;34.16;99497.03;5050179;28;20254;-68
2023/08/23 09:13:17;;;;;;;2.25;2.15;;;;;;;37.59;34.55;99494.38;5049892;28;20603;-68
2023/08/23 09:15:47;;;;;;;2.05;1.95;;;;;;;37.43;33.97;99501.03;5049668;28;20273;-68
2023/08/23 09:18:14;;;;;;;1.70;1.60;;;;;;;37.33;34.85;99490.81;5048473;28;20258;-68
2023/08/23 09:20:43;;;;;;;2.20;2.10;;;;;;;37.34;33.52;99470.25;5049110;28;20692;-69
2023/08/23 09:23:11;;;;;;;1.85;1.75;;;;;;;37.54;33.80;99480.84;5049382;28;20228;-68
2023/08/23 09:25:37;;;;;;;1.80;1.70;;;;;;;37.64;33.69;99470.47;5045715;28;20586;-65
2023/08/23 09:28:05;;;;;;;3.70;2.10;;;;;;;37.54;33.21;99470.13;5048089;28;20220;-69
2023/08/23 09:30:34;;;;;;;1.55;1.52;;;;;;;37.56;34.18;99474.22;5048108;28;20631;-70
2023/08/23 09:33:01;;;;;;;2.28;2.08;;;;;;;37.49;32.82;99472.63;5048903;28;20259;-69
2023/08/23 09:35:29;;;;;;;1.50;1.50;;;;;;;37.58;33.23;99455.28;5048674;28;21026;-69
2023/08/23 09:37:57;;;;;;;1.95;1.85;;;;;;;37.86;32.35;99466.34;5048591;28;20224;-70
2023/08/23 09:40:27;;;;;;;2.00;1.90;;;;;;;38.07;32.73;99462.44;5048151;28;20208;-69
2023/08/23 09:42:54;;;;;;;1.40;1.40;;;;;;;38.10;32.15;99470.84;5046186;28;20693;-70
2023/08/23 09:45:23;;;;;;;1.45;1.42;;;;;;;38.14;31.88;99464.03;5051942;28;20205;-69
2023/08/23 09:47:54;;;;;;;1.83;1.63;;;;;;;38.02;31.03;99457.78;5053338;28;20221;-69
2023/08/23 09:50:24;;;;;;;3.35;1.73;;;;;;;38.01;31.71;99461.50;5052569;28;20212;-69
2023/08/23 09:52:52;;;;;;;1.23;1.13;;;;;;;37.96;30.91;99464.03;5050101;28;20201;-69
2023/08/23 09:55:19;;;;;;;1.55;1.50;;;;;;;37.98;31.38;99466.47;5049508;28;20204;-68
2023/08/23 09:57:48;;;;;;;1.75;1.65;;;;;;;38.06;31.61;99453.63;5051643;28;20255;-69
2023/08/23 10:00:16;;;;;;;1.40;1.40;;;;;;;37.71;30.89;99455.16;5052793;28;20230;-70
2023/08/23 10:02:45;;;;;;;3.30;1.60;;;;;;;37.76;31.55;99456.16;5052506;28;20205;-69
2023/08/23 10:05:12;;;;;;;2.30;1.88;;;;;;;37.94;29.74;99444.66;5050058;28;20204;-69
2023/08/23 10:07:43;;;;;;;2.60;2.20;;;;;;;38.03;31.33;99448.69;5050385;28;20256;-69
2023/08/23 10:10:11;;;;;;;1.65;1.55;;;;;;;37.91;29.63;99450.47;5048294;28;20197;-69
2023/08/23 10:12:44;;;;;;;2.25;2.05;;;;;;;37.80;31.99;99448.50;5050786;28;20205;-68
2023/08/23 10:15:15;;;;;;;1.98;1.88;;;;;;;37.85;31.74;99440.63;5051110;28;20196;-69
2023/08/23 10:17:46;;;;;;;4.35;2.00;;;;;;;38.05;31.13;99440.44;5050562;28;20205;-69
2023/08/23 10:20:13;;;;;;;1.77;1.67;;;;;;;38.24;31.51;99442.91;5050736;28;20201;-69
2023/08/23 10:22:41;;;;;;;2.50;1.90;;;;;;;38.47;30.65;99439.56;5046245;28;20228;-69
2023/08/23 10:25:18;;;;;;;1.48;1.48;;;;;;;38.61;29.33;99432.19;5050464;28;20232;-71
2023/08/23 10:27:46;;;;;;;1.90;1.80;;;;;;;38.63;29.04;99440.81;5049779;28;20213;-70
2023/08/23 10:30:23;;;;;;;1.73;1.63;;;;;;;38.55;29.37;99435.78;5049286;28;20296;-69
2023/08/23 10:32:51;;;;;;;1.17;1.17;;;;;;;38.75;30.31;99433.63;5050846;28;20216;-69
2023/08/23 10:35:29;;;;;;;1.40;1.30;;;;;;;38.59;28.42;99436.94;5048691;28;20238;-69
2023/08/23 10:37:57;;;;;;;4.38;1.73;;;;;;;38.76;29.50;99425.38;5051593;28;20241;-70
2023/08/23 10:40:28;;;;;;;1.33;1.30;;;;;;;38.71;29.11;99427.09;5050460;28;20734;-69
2023/08/23 10:42:54;;;;;;;4.13;1.50;;;;;;;38.50;28.75;99432.94;5048873;28;20200;-69
2023/08/23 10:45:23;;;;;;;1.58;1.48;;;;;;;38.44;29.50;99433.84;5047254;28;20585;-69
2023/08/23 10:47:51;;;;;;;1.40;1.33;;;;;;;38.37;28.82;99419.72;5051492;28;20220;-68
2023/08/23 10:50:19;;;;;;;1.50;1.50;;;;;;;37.95;29.06;99419.53;5049975;28;20766;-69
2023/08/23 10:52:48;;;;;;;2.00;1.90;;;;;;;38.06;29.97;99426.84;5051323;28;20201;-68
2023/08/23 10:55:15;;;;;;;3.40;1.33;;;;;;;38.08;30.06;99414.03;5049516;28;20399;-70
2023/08/23 10:57:41;;;;;;;1.85;1.75;;;;;;;38.20;28.58;99406.91;5048647;28;20197;-70
2023/08/23 11:00:09;;;;;;;2.08;1.80;;;;;;;38.33;29.43;99398.69;5048064;28;20204;-70
2023/08/23 11:02:38;;;;;;;2.05;1.95;;;;;;;38.64;30.54;99396.91;5050555;28;20639;-69
2023/08/23 11:05:06;;;;;;;1.45;1.45;;;;;;;38.74;29.43;99397.16;5048745;28;20267;-71
2023/08/23 11:07:34;;;;;;;1.80;1.70;;;;;;;38.60;28.47;99393.84;5052245;28;20217;-70
2023/08/23 11:10:01;;;;;;;3.22;1.60;;;;;;;38.48;27.96;99390.31;5051753;28;20227;-70
2023/08/23 11:12:28;;;;;;;1.65;1.55;;;;;;;38.31;29.28;99387.41;5051371;28;20196;-70
2023/08/23 11:14:56;;;;;;;1.55;1.45;;;;;;;38.25;29.52;99388.31;5049802;28;20213;-69
2023/08/23 11:17:23;;;;;;;2.72;1.80;;;;;;;38.11;29.17;99377.97;5047630;28;20231;-69
2023/08/23 11:19:52;;;;;;;2.05;1.95;;;;;;;37.95;29.90;99379.38;5050797;28;20209;-69
2023/08/23 11:22:19;;;;;;;1.85;1.75;;;;;;;38.15;29.42;99387.19;5052811;28;20224;-70
2023/08/23 11:24:46;;;;;;;5.07;2.05;;;;;;;37.73;29.45;99378.16;5053227;28;20197;-70
2023/08/23 11:27:13;;;;;;;1.48;1.35;;;;;;;37.66;29.87;99377.41;5053545;28;20632;-70
2023/08/23 11:29:40;;;;;;;2.72;2.20;;;;;;;37.83;29.90;99365.09;5049143;28;20204;-68
2023/08/23 11:32:07;;;;;;;4.18;2.00;;;;;;;37.97;30.32;99369.25;5050648;28;20196;-69
2023/08/23 11:34:34;;;;;;;2.58;1.98;;;;;;;37.80;29.52;99352.97;5051086;28;20441;-66
2023/08/23 11:37:07;;;;;;;3.53;2.05;;;;;;;37.78;30.00;99365.75;5051265;28;20200;-67